• Join FlightAware (Why Join?)
  • Login
  • US Flag 
07:41PM EDT


 

Airport Tracker/Info


-or-


 

Live Flight TrackerFlight Track Log ✈ UAL694 ✈ 20-Jun-2013 ✈ KIAH - KBOS

Flight Track Log - Related Links

Times and Time Zones

All times are in EDT time to prevent confusion due to time zone crossing. See the UAL694 flight status page for this flight to view local times or setup timezone preferences in your user account.

Time Position Orientation Groundspeed Altitude Reporting Facility
EDT Latitude Longitude Course Direction KTS MPH feet Rate Location/Type
05:52PM 29.9619 -95.3458 271° West 154 177 800  Level Houston Center
05:53PM 29.9628 -95.4014 271° West 253 291 2,700 1,620 Climbing Houston Center
05:54PM 30.0214 -95.3772 20° North 272 313 4,700 2,460 Climbing Houston Center
05:56PM 30.1222 -95.3169 27° Northeast 286 329 8,600 2,520 Climbing Houston Center
05:57PM 30.1950 -95.2731 28° Northeast 292 336 11,000 1,860 Climbing Houston Center
05:58PM 30.2764 -95.2242 27° Northeast 323 372 12,500 1,500 Climbing Houston Center
05:59PM 30.3731 -95.1917 16° North 355 409 14,200 1,800 Climbing Houston Center
06:00PM 30.4822 -95.1467 20° North 372 428 16,300 1,800 Climbing Houston Center
06:01PM 30.5736 -95.0858 30° Northeast 376 433 18,000 1,620 Climbing Houston Center
06:02PM 30.6681 -95.0258 29° Northeast 386 444 19,700 1,440 Climbing Houston Center
06:03PM 30.7856 -94.9536 28° Northeast 397 457 21,000 600 Climbing Houston Center
06:04PM 30.8836 -94.8925 28° Northeast 403 464 21,000 480 Level Houston Center
06:05PM 30.9836 -94.8297 28° Northeast 405 466 22,000 960 Climbing Houston Center
06:06PM 31.0839 -94.7664 28° Northeast 412 474 23,100 1,140 Climbing Houston Center
06:07PM 31.2039 -94.6853 30° Northeast 429 494 24,400 1,140 Climbing Houston Center
06:08PM 31.3058 -94.6175 30° Northeast 428 493 25,500 900 Climbing Houston Center
06:09PM 31.4103 -94.5464 30° Northeast 433 498 26,300 900 Climbing Houston Center
06:10PM 31.5186 -94.4711 31° Northeast 445 512 27,400 960 Climbing Houston Center
06:11PM 31.6225 -94.3889 34° Northeast 451 519 28,400 960 Climbing Houston Center
06:12PM 31.7400 -94.2750 39° Northeast 454 522 29,400 840 Climbing Houston Center
06:13PM 31.8344 -94.1864 39° Northeast 459 528 30,200 900 Climbing Houston Center
06:14PM 31.9175 -94.1092 38° Northeast 459 528 31,000 900 Climbing Fort Worth Center
06:15PM 32.0050 -94.0253 39° Northeast 459 528 31,800 780 Climbing Fort Worth Center
06:16PM 32.1047 -93.9283 39° Northeast 459 528 32,600 600 Climbing Fort Worth Center
06:17PM 32.2019 -93.8289 41° Northeast 459 528 33,000 180 Climbing Fort Worth Center
06:18PM 32.3014 -93.7267 41° Northeast 459 528 33,000  Level Fort Worth Center
06:19PM 32.4008 -93.6317 39° Northeast 459 528 33,000 60 Level Fort Worth Center
06:20PM 32.5003 -93.5364 39° Northeast 464 534 33,200 540 Climbing Fort Worth Center
06:21PM 32.5997 -93.4433 38° Northeast 459 528 34,100 900 Climbing Fort Worth Center
06:22PM 32.6986 -93.3428 41° Northeast 459 528 35,000 420 Climbing Fort Worth Center
06:23PM 32.7978 -93.2467 39° Northeast 459 528 35,000  Level Fort Worth Center
06:24PM 32.8947 -93.1508 40° Northeast 459 528 35,000  Level Fort Worth Center
06:26PM 33.0619 -92.9872 39° Northeast 456 525 35,000  Level Memphis Center
06:27PM 33.1642 -92.8908 38° Northeast 461 531 35,000  Level Memphis Center
06:28PM 33.2600 -92.7944 40° Northeast 461 531 35,000  Level Memphis Center
06:29PM 33.3600 -92.6953 40° Northeast 461 531 35,000  Level Memphis Center
06:30PM 33.4578 -92.5981 40° Northeast 456 525 35,000  Level Memphis Center
06:31PM 33.5556 -92.4983 40° Northeast 456 525 35,000  Level Memphis Center
06:32PM 33.6553 -92.4011 39° Northeast 456 525 35,000  Level Memphis Center
06:33PM 33.7528 -92.3058 39° Northeast 456 525 35,000  Level Memphis Center
06:34PM 33.8481 -92.2081 40° Northeast 456 525 35,000  Level Memphis Center
06:35PM 33.9456 -92.1100 40° Northeast 451 519 35,000  Level Memphis Center
06:36PM 34.0428 -92.0092 41° Northeast 456 525 35,000  Level Memphis Center
06:37PM 34.1467 -91.8981 41° Northeast 451 519 35,000  Level Memphis Center
06:38PM 34.2436 -91.7994 40° Northeast 451 519 35,000  Level Memphis Center
06:39PM 34.3431 -91.7006 39° Northeast 451 519 35,000  Level Memphis Center
06:40PM 34.4419 -91.5986 40° Northeast 457 526 35,000  Level Memphis Center
06:41PM 34.5389 -91.4992 40° Northeast 457 526 35,000  Level Memphis Center
06:42PM 34.6339 -91.3994 41° Northeast 452 520 35,000  Level Memphis Center
06:43PM 34.7325 -91.2972 40° Northeast 452 520 35,000  Level Memphis Center
06:44PM 34.8294 -91.1969 40° Northeast 452 520 35,000  Level Memphis Center
06:45PM 34.9258 -91.0942 41° Northeast 454 522 35,000  Level Memphis Center
06:46PM 35.0244 -90.9936 40° Northeast 454 522 35,000  Level Memphis Center
06:47PM 35.1125 -90.9003 41° Northeast 454 522 35,000  Level Memphis Center
06:48PM 35.2089 -90.7967 41° Northeast 459 528 35,000  Level Memphis Center
06:49PM 35.3072 -90.6928 41° Northeast 459 528 35,000  Level Memphis Center
06:50PM 35.4036 -90.5914 41° Northeast 459 528 35,000  Level Memphis Center
06:51PM 35.4997 -90.4897 41° Northeast 459 528 35,000  Level Memphis Center
06:52PM 35.6039 -90.3750 42° Northeast 459 528 35,000  Level Memphis Center
06:53PM 35.6914 -90.2700 44° Northeast 458 527 35,000  Level Memphis Center
06:54PM 35.7894 -90.1703 40° Northeast 447 514 35,000  Level Memphis Center
06:55PM 35.8850 -90.0650 42° Northeast 447 514 35,000  Level Memphis Center
06:56PM 35.9808 -89.9619 41° Northeast 452 520 35,000  Level Memphis Center
06:57PM 36.0764 -89.8589 41° Northeast 452 520 35,000  Level Memphis Center
06:58PM 36.1697 -89.7581 41° Northeast 452 520 35,000  Level Memphis Center
06:59PM 36.2628 -89.6542 42° Northeast 452 520 35,000  Level Memphis Center
07:00PM 36.3583 -89.5556 40° Northeast 452 520 35,000  Level Memphis Center
07:01PM 36.4450 -89.4617 41° Northeast 452 520 35,000  Level Memphis Center
07:02PM 36.5444 -89.3522 41° Northeast 459 528 35,000  Level Memphis Center
07:03PM 36.6372 -89.2450 43° Northeast 459 528 35,000  Level Memphis Center
07:04PM 36.7281 -89.1428 42° Northeast 453 521 35,000  Level Memphis Center
07:05PM 36.8206 -89.0378 42° Northeast 448 516 35,000  Level Memphis Center
07:06PM 36.9153 -88.9322 42° Northeast 448 516 35,000  Level Memphis Center
07:07PM 37.0058 -88.8269 43° Northeast 448 516 35,000  Level Memphis Center
07:08PM 37.1003 -88.7236 41° Northeast 443 510 35,000  Level Memphis Center
07:09PM 37.1925 -88.6175 42° Northeast 437 503 35,000  Level Memphis Center
07:10PM 37.2869 -88.5111 42° Northeast 437 503 35,000  Level Memphis Center
07:11PM 37.4131 -88.3603 44° Northeast 451 519 35,000  Level Indianapolis Center
07:12PM 37.5003 -88.2597 42° Northeast 450 518 35,000  Level Indianapolis Center
07:13PM 37.6003 -88.1444 42° Northeast 453 521 35,000  Level Indianapolis Center
07:14PM 37.6925 -88.0369 43° Northeast 447 514 35,000  Level Indianapolis Center
07:15PM 37.7964 -87.9158 43° Northeast 451 519 35,000  Level Indianapolis Center
07:16PM 37.8881 -87.8089 43° Northeast 449 517 35,000  Level Indianapolis Center
07:17PM 37.9747 -87.6928 47° Northeast 451 519 35,000  Level Indianapolis Center
07:18PM 38.0528 -87.5681 51° Northeast 450 518 35,000  Level Indianapolis Center
07:19PM 38.1328 -87.4431 51° Northeast 453 521 35,000  Level Indianapolis Center
07:21PM 38.2122 -87.3178 51° Northeast 453 521 35,000  Level Indianapolis Center
07:22PM 38.2997 -87.1797 51° Northeast 452 520 35,000  Level Indianapolis Center
07:23PM 38.3792 -87.0517 52° Northeast 459 528 35,000  Level Indianapolis Center
07:24PM 38.4578 -86.9264 51° Northeast 458 527 35,000  Level Indianapolis Center
07:25PM 38.5517 -86.7742 52° Northeast 454 522 35,000  Level Indianapolis Center
07:26PM 38.6292 -86.6500 51° Northeast 447 514 35,000  Level Indianapolis Center
07:27PM 38.7072 -86.5258 51° Northeast 446 513 35,000  Level Indianapolis Center
07:28PM 38.7836 -86.4000 52° Northeast 445 512 35,000  Level Indianapolis Center
07:29PM 38.8614 -86.2719 52° Northeast 453 521 35,000  Level Indianapolis Center
07:30PM 38.9364 -86.1514 51° Northeast 452 520 35,000  Level Indianapolis Center
07:31PM 39.0300 -85.9972 52° Northeast 457 526 35,000  Level Indianapolis Center
07:32PM 39.1067 -85.8703 52° Northeast 453 521 35,000  Level Indianapolis Center
07:33PM 39.1825 -85.7450 52° Northeast 449 517 35,000  Level Indianapolis Center
07:34PM 39.2581 -85.6189 52° Northeast 448 516 35,000  Level Indianapolis Center
07:35PM 39.3358 -85.4900 52° Northeast 456 525 35,000  Level Indianapolis Center
07:36PM 39.4197 -85.3644 49° Northeast 464 534 35,000  Level Indianapolis Center
07:37PM 39.5197 -85.2142 49° Northeast 461 531 35,000  Level Indianapolis Center
07:38PM 39.6044 -85.0900 48° Northeast 462 532 35,000  Level Indianapolis Center
07:39PM 39.6875 -84.9639 49° Northeast 460 529 35,000 -60 Level Indianapolis Center
07:40PM 39.7733 -84.8336 49° Northeast 458 527 34,900 -60 Descending Indianapolis Center
07:41PM 39.8569 -84.7067 49° Northeast 457 526 34,900  Level Indianapolis Center
07:42PM 39.9403 -84.5792 50° Northeast 457 526 34,900  Level Indianapolis Center
07:43PM 40.0236 -84.4531 49° Northeast 454 522 34,900  Level Indianapolis Center
07:44PM 40.1072 -84.3250 49° Northeast 457 526 34,900  Level Indianapolis Center
07:45PM 40.1903 -84.1969 50° Northeast 457 526 34,900  Level Indianapolis Center
07:46PM 40.2853 -84.0467 50° Northeast 453 521 35,000  Climbing Indianapolis Center
07:47PM 40.3642 -83.9136 52° Northeast 455 524 35,000 -60 Level Indianapolis Center
07:48PM 40.4419 -83.7797 53° Northeast 456 525 34,900 -60 Descending Indianapolis Center
07:49PM 40.5183 -83.6475 53° Northeast 449 517 34,900  Level Indianapolis Center
07:50PM 40.5950 -83.5164 52° Northeast 447 514 34,900  Level Indianapolis Center
07:51PM 40.6714 -83.3819 53° Northeast 452 520 34,900  Level Indianapolis Center
07:52PM 40.7478 -83.2478 53° Northeast 453 521 35,000  Climbing Indianapolis Center
07:53PM 40.8286 -83.1075 53° Northeast 450 518 35,000  Level Indianapolis Center
07:54PM 40.9033 -82.9650 55° Northeast 443 510 35,000  Level Cleveland Center
07:55PM 40.9522 -82.8128 67° East 443 510 35,000  Level Cleveland Center
07:56PM 40.9947 -82.6575 70° East 456 525 35,000  Level Cleveland Center
07:57PM 41.0414 -82.4964 69° East 456 525 35,000  Level Cleveland Center
07:58PM 41.0875 -82.3408 68° East 456 525 35,000  Level Cleveland Center
07:59PM 41.1317 -82.1794 70° East 456 525 35,000  Level Cleveland Center
08:00PM 41.1797 -82.0150 69° East 468 539 35,000  Level Cleveland Center
08:01PM 41.2253 -81.8558 69° East 468 539 35,000  Level Cleveland Center
08:02PM 41.2686 -81.6936 70° East 468 539 35,000  Level Cleveland Center
08:03PM 41.3139 -81.5342 69° East 468 539 35,000  Level Cleveland Center
08:04PM 41.3547 -81.3742 71° East 468 539 35,000  Level Cleveland Center
08:05PM 41.3994 -81.2114 70° East 468 539 35,000  Level Cleveland Center
08:06PM 41.4442 -81.0458 70° East 468 539 35,000  Level Cleveland Center
08:07PM 41.4883 -80.8825 70° East 468 539 35,000  Level Cleveland Center
08:08PM 41.5325 -80.7192 70° East 468 539 35,000  Level Cleveland Center
08:09PM 41.5703 -80.5719 71° East 468 539 35,000  Level Cleveland Center
08:10PM 41.6139 -80.4053 71° East 468 539 35,000  Level Cleveland Center
08:11PM 41.6592 -80.2414 70° East 468 539 35,000  Level Cleveland Center
08:12PM 41.7003 -80.0742 72° East 468 539 35,000  Level Cleveland Center
08:13PM 41.7475 -79.9042 70° East 468 539 35,000  Level Cleveland Center
08:14PM 41.7858 -79.7367 73° East 468 539 35,000  Level Cleveland Center
08:15PM 41.8367 -79.5519 70° East 468 539 35,000  Level Cleveland Center
08:16PM 41.8786 -79.3811 72° East 468 539 35,000  Level Cleveland Center
08:17PM 41.9228 -79.2131 70° East 468 539 35,000  Level Cleveland Center
08:18PM 41.9622 -79.0389 73° East 473 544 35,000  Level Cleveland Center
08:19PM 42.0056 -78.8675 71° East 478 550 35,000  Level Cleveland Center
08:20PM 42.0486 -78.6928 72° East 478 550 35,000  Level Cleveland Center
08:21PM 42.0894 -78.5239 72° East 484 557 35,000  Level Cleveland Center
08:22PM 42.1322 -78.3489 72° East 484 557 35,000  Level Cleveland Center
08:23PM 42.1744 -78.1764 72° East 484 557 35,000  Level Cleveland Center
08:24PM 42.2144 -78.0039 73° East 484 557 35,000  Level Cleveland Center
08:25PM 42.2544 -77.8311 73° East 484 557 35,000  Level Cleveland Center
08:26PM 42.2958 -77.6581 72° East 484 557 35,000  Level Cleveland Center
08:27PM 42.3353 -77.4819 73° East 484 557 35,000  Level Cleveland Center
08:30PM 42.4211 -77.1097 73° East 496 571 35,000  Level Boston Center
08:31PM 42.4511 -76.9317 77° East 489 563 35,000  Level Boston Center
08:32PM 42.4708 -76.7472 82° East 489 563 35,000  Level Boston Center
08:33PM 42.4903 -76.5628 82° East 489 563 35,000  Level Boston Center
08:34PM 42.5069 -76.3836 83° East 489 563 35,000 -60 Level Boston Center
08:35PM 42.5156 -76.1953 86° East 489 563 34,900 -60 Descending Boston Center
08:36PM 42.5172 -76.0094 89° East 489 563 34,900  Level Boston Center
08:37PM 42.5231 -75.8208 88° East 494 568 34,900  Level Boston Center
08:38PM 42.5258 -75.6547 89° East 500 575 34,900  Level Boston Center
08:39PM 42.5289 -75.4717 89° East 494 568 34,900  Level Boston Center
08:40PM 42.5336 -75.2861 88° East 494 568 34,900  Level Boston Center
08:41PM 42.5369 -75.0578 89° East 494 568 34,900  Level Boston Center
08:42PM 42.5389 -74.8747 89° East 494 568 34,900  Level Boston Center
08:43PM 42.5428 -74.6889 88° East 494 568 34,900  Level Boston Center
08:44PM 42.5442 -74.5000 89° East 494 568 34,900  Level Boston Center
08:45PM 42.5475 -74.3169 89° East 494 568 35,000  Climbing Boston Center
08:46PM 42.5506 -74.1283 89° East 494 568 35,000 -120 Level Boston Center
08:47PM 42.5508 -73.9422 90° East 494 568 34,800 -1,020 Descending Boston Center
08:48PM 42.5511 -73.7533 90° East 494 568 33,000 -1,860 Descending Boston Center
08:49PM 42.5511 -73.5617 90° East 494 568 31,100 -1,920 Descending Boston Center
08:50PM 42.5528 -73.3731 89° East 494 568 29,200 -1,920 Descending Boston Center
08:51PM 42.5544 -73.1728 89° East 512 589 27,300 -1,860 Descending Boston Center
08:52PM 42.5533 -72.9897 90° East 505 581 25,500 -1,680 Descending Boston Center
08:53PM 42.5519 -72.8092 91° East 488 562 24,000 -840 Descending Boston Center
08:54PM 42.5525 -72.6403 90° East 463 533 23,900 -780 Descending Boston Center
08:55PM 42.5506 -72.4711 91° East 451 519 22,500 -1,800 Descending Boston Center
08:56PM 42.5483 -72.3019 91° East 451 519 20,400 -2,160 Descending Boston Center
08:57PM 42.5481 -72.1497 90° East 417 480 18,200 -2,100 Descending Boston Center
08:58PM 42.5392 -71.9753 94° East 417 480 16,200 -2,040 Descending Boston Center
08:59PM 42.5258 -71.8428 98° East 411 473 14,200 -2,160 Descending Boston Center
09:00PM 42.5106 -71.6825 97° East 401 461 11,900 -1,800 Descending Boston Center
09:01PM 42.5178 -71.5583 85° East 374 430 10,600 -1,560 Descending Boston Center
09:02PM 42.5333 -71.4167 81° East 308 354 8,700 -1,860 Descending KA90
09:03PM 42.5667 -71.3000 69° East 301 346 6,700 -1,740 Descending KA90
09:04PM 42.5833 -71.2000 77° East 294 338 5,300 -1,440 Descending KA90
09:05PM 42.6000 -71.0833 79° East 284 327 3,700 -1,140 Descending KA90
09:06PM 42.5667 -71.0000 118° Southeast 238 274 3,000 -420 Descending KA90
09:07PM 42.5333 -70.9667 144° Southeast 208 239 3,000  Level KA90